sensor_id;sensor_type;location;lat;lon;timestamp;P1;durP1;ratioP1;P2;durP2;ratioP2
10041;SDS011;5061;49.068;12.058;2024-03-23T00:55:30;15.80;;;9.87;;
10041;SDS011;5061;49.068;12.058;2024-03-23T00:58:50;18.93;;;11.87;;
10041;SDS011;5061;49.068;12.058;2024-03-23T01:02:11;15.70;;;9.67;;
10041;SDS011;5061;49.068;12.058;2024-03-23T01:05:32;16.13;;;10.33;;
10041;SDS011;5061;49.068;12.058;2024-03-23T01:08:52;15.97;;;9.50;;
10041;SDS011;5061;49.068;12.058;2024-03-23T01:12:13;17.20;;;9.13;;
10041;SDS011;5061;49.068;12.058;2024-03-23T01:15:33;13.90;;;9.40;;
10041;SDS011;5061;49.068;12.058;2024-03-23T01:18:54;15.97;;;10.60;;
10041;SDS011;5061;49.068;12.058;2024-03-23T01:22:14;11.17;;;7.70;;
10041;SDS011;5061;49.068;12.058;2024-03-23T01:25:35;12.97;;;8.73;;
10041;SDS011;5061;49.068;12.058;2024-03-23T01:28:56;12.87;;;9.17;;
10041;SDS011;5061;49.068;12.058;2024-03-23T01:32:16;11.37;;;8.43;;
10041;SDS011;5061;49.068;12.058;2024-03-23T01:35:38;12.97;;;8.90;;
10041;SDS011;5061;49.068;12.058;2024-03-23T01:38:59;14.10;;;8.20;;
10041;SDS011;5061;49.068;12.058;2024-03-23T01:42:19;18.13;;;9.43;;
10041;SDS011;5061;49.068;12.058;2024-03-23T01:45:40;11.53;;;7.77;;
10041;SDS011;5061;49.068;12.058;2024-03-23T01:49:01;16.40;;;10.13;;
10041;SDS011;5061;49.068;12.058;2024-03-23T01:52:22;11.00;;;8.07;;
10041;SDS011;5061;49.068;12.058;2024-03-23T01:55:43;17.57;;;11.43;;
10041;SDS011;5061;49.068;12.058;2024-03-23T01:59:04;17.67;;;11.17;;
10041;SDS011;5061;49.068;12.058;2024-03-23T02:02:25;16.47;;;10.90;;
10041;SDS011;5061;49.068;12.058;2024-03-23T02:05:46;22.03;;;13.47;;
10041;SDS011;5061;49.068;12.058;2024-03-23T02:09:06;20.73;;;12.47;;
10041;SDS011;5061;49.068;12.058;2024-03-23T02:12:27;17.60;;;10.73;;
10041;SDS011;5061;49.068;12.058;2024-03-23T02:15:48;16.23;;;9.73;;
10041;SDS011;5061;49.068;12.058;2024-03-23T02:19:08;16.73;;;11.13;;
10041;SDS011;5061;49.068;12.058;2024-03-23T02:22:36;16.90;;;10.67;;
10041;SDS011;5061;49.068;12.058;2024-03-23T02:25:57;16.23;;;10.30;;
10041;SDS011;5061;49.068;12.058;2024-03-23T02:29:18;16.83;;;11.60;;
10041;SDS011;5061;49.068;12.058;2024-03-23T02:32:39;16.30;;;10.57;;
10041;SDS011;5061;49.068;12.058;2024-03-23T02:36:00;17.90;;;10.30;;
10041;SDS011;5061;49.068;12.058;2024-03-23T02:39:21;20.27;;;12.33;;
10041;SDS011;5061;49.068;12.058;2024-03-23T02:42:42;18.03;;;11.63;;
10041;SDS011;5061;49.068;12.058;2024-03-23T02:46:03;18.67;;;11.40;;
10041;SDS011;5061;49.068;12.058;2024-03-23T02:49:24;18.37;;;10.40;;
10041;SDS011;5061;49.068;12.058;2024-03-23T02:52:45;18.73;;;11.10;;
10041;SDS011;5061;49.068;12.058;2024-03-23T02:56:06;17.80;;;11.70;;
10041;SDS011;5061;49.068;12.058;2024-03-23T02:59:28;17.77;;;11.27;;
10041;SDS011;5061;49.068;12.058;2024-03-23T03:02:48;16.30;;;10.97;;
10041;SDS011;5061;49.068;12.058;2024-03-23T03:06:09;15.53;;;10.20;;
10041;SDS011;5061;49.068;12.058;2024-03-23T03:09:30;16.87;;;10.83;;
10041;SDS011;5061;49.068;12.058;2024-03-23T03:12:50;17.90;;;11.40;;
10041;SDS011;5061;49.068;12.058;2024-03-23T03:16:11;16.63;;;10.23;;
10041;SDS011;5061;49.068;12.058;2024-03-23T03:19:32;18.30;;;11.57;;
10041;SDS011;5061;49.068;12.058;2024-03-23T03:22:53;15.83;;;10.73;;
10041;SDS011;5061;49.068;12.058;2024-03-23T03:26:14;18.30;;;10.00;;
10041;SDS011;5061;49.068;12.058;2024-03-23T03:29:34;16.60;;;10.47;;
10041;SDS011;5061;49.068;12.058;2024-03-23T03:32:55;15.20;;;10.40;;
10041;SDS011;5061;49.068;12.058;2024-03-23T03:36:16;16.23;;;10.93;;
10041;SDS011;5061;49.068;12.058;2024-03-23T03:39:37;14.30;;;10.37;;
10041;SDS011;5061;49.068;12.058;2024-03-23T03:42:57;17.53;;;11.37;;
10041;SDS011;5061;49.068;12.058;2024-03-23T03:46:18;20.40;;;11.50;;
10041;SDS011;5061;49.068;12.058;2024-03-23T03:49:38;12.83;;;8.73;;
10041;SDS011;5061;49.068;12.058;2024-03-23T03:52:59;10.73;;;8.20;;
10041;SDS011;5061;49.068;12.058;2024-03-23T03:56:19;12.57;;;8.90;;
10041;SDS011;5061;49.068;12.058;2024-03-23T03:59:41;15.77;;;10.23;;
10041;SDS011;5061;49.068;12.058;2024-03-23T04:03:02;13.97;;;9.30;;
10041;SDS011;5061;49.068;12.058;2024-03-23T04:06:23;13.77;;;9.17;;
10041;SDS011;5061;49.068;12.058;2024-03-23T04:09:43;15.90;;;9.53;;
10041;SDS011;5061;49.068;12.058;2024-03-23T04:13:04;11.40;;;7.93;;
10041;SDS011;5061;49.068;12.058;2024-03-23T04:16:26;13.47;;;8.40;;
10041;SDS011;5061;49.068;12.058;2024-03-23T04:19:48;13.20;;;8.70;;
10041;SDS011;5061;49.068;12.058;2024-03-23T04:23:10;13.47;;;8.20;;
10041;SDS011;5061;49.068;12.058;2024-03-23T04:26:30;14.00;;;8.73;;
10041;SDS011;5061;49.068;12.058;2024-03-23T04:30:03;11.53;;;8.13;;
10041;SDS011;5061;49.068;12.058;2024-03-23T04:33:30;16.60;;;9.47;;
10041;SDS011;5061;49.068;12.058;2024-03-23T04:36:50;12.00;;;8.17;;
10041;SDS011;5061;49.068;12.058;2024-03-23T04:40:11;11.80;;;7.40;;
10041;SDS011;5061;49.068;12.058;2024-03-23T04:43:31;8.43;;;6.53;;
10041;SDS011;5061;49.068;12.058;2024-03-23T04:46:53;11.90;;;8.10;;
10041;SDS011;5061;49.068;12.058;2024-03-23T04:50:13;13.17;;;8.40;;
10041;SDS011;5061;49.068;12.058;2024-03-23T04:53:34;9.43;;;6.13;;
10041;SDS011;5061;49.068;12.058;2024-03-23T04:56:54;7.80;;;5.30;;
10041;SDS011;5061;49.068;12.058;2024-03-23T05:00:16;9.23;;;6.00;;
10041;SDS011;5061;49.068;12.058;2024-03-23T05:03:37;11.03;;;6.47;;
10041;SDS011;5061;49.068;12.058;2024-03-23T05:06:58;9.10;;;6.10;;
10041;SDS011;5061;49.068;12.058;2024-03-23T05:10:18;11.93;;;6.30;;
10041;SDS011;5061;49.068;12.058;2024-03-23T05:13:39;9.50;;;6.90;;
10041;SDS011;5061;49.068;12.058;2024-03-23T05:16:59;10.63;;;7.17;;
10041;SDS011;5061;49.068;12.058;2024-03-23T05:20:20;9.20;;;6.87;;
10041;SDS011;5061;49.068;12.058;2024-03-23T05:23:41;10.93;;;6.90;;
10041;SDS011;5061;49.068;12.058;2024-03-23T05:27:03;9.87;;;6.93;;
10041;SDS011;5061;49.068;12.058;2024-03-23T05:30:24;8.17;;;6.10;;
10041;SDS011;5061;49.068;12.058;2024-03-23T05:33:44;14.37;;;6.80;;
10041;SDS011;5061;49.068;12.058;2024-03-23T05:37:08;10.30;;;6.60;;
10041;SDS011;5061;49.068;12.058;2024-03-23T05:40:28;11.30;;;7.60;;
10041;SDS011;5061;49.068;12.058;2024-03-23T05:43:49;9.70;;;6.50;;
10041;SDS011;5061;49.068;12.058;2024-03-23T05:47:10;9.70;;;6.77;;
10041;SDS011;5061;49.068;12.058;2024-03-23T05:50:30;8.70;;;5.33;;
10041;SDS011;5061;49.068;12.058;2024-03-23T05:53:51;7.90;;;5.63;;
10041;SDS011;5061;49.068;12.058;2024-03-23T05:57:11;7.07;;;5.47;;
10041;SDS011;5061;49.068;12.058;2024-03-23T06:00:33;8.60;;;6.20;;
10041;SDS011;5061;49.068;12.058;2024-03-23T06:03:54;8.80;;;6.13;;
10041;SDS011;5061;49.068;12.058;2024-03-23T06:07:15;9.20;;;6.30;;
10041;SDS011;5061;49.068;12.058;2024-03-23T06:10:36;9.50;;;7.10;;
10041;SDS011;5061;49.068;12.058;2024-03-23T06:13:56;8.43;;;6.00;;
10041;SDS011;5061;49.068;12.058;2024-03-23T06:17:17;11.70;;;7.50;;
10041;SDS011;5061;49.068;12.058;2024-03-23T06:20:37;6.63;;;5.20;;
10041;SDS011;5061;49.068;12.058;2024-03-23T06:23:58;11.60;;;7.30;;
10041;SDS011;5061;49.068;12.058;2024-03-23T06:27:19;7.57;;;5.37;;
10041;SDS011;5061;49.068;12.058;2024-03-23T06:30:40;8.57;;;6.07;;
10041;SDS011;5061;49.068;12.058;2024-03-23T06:34:00;8.50;;;5.80;;
10041;SDS011;5061;49.068;12.058;2024-03-23T06:37:21;7.93;;;5.67;;
10041;SDS011;5061;49.068;12.058;2024-03-23T06:40:42;7.20;;;5.33;;
10041;SDS011;5061;49.068;12.058;2024-03-23T06:44:03;6.90;;;4.90;;
10041;SDS011;5061;49.068;12.058;2024-03-23T06:47:24;8.07;;;6.10;;
10041;SDS011;5061;49.068;12.058;2024-03-23T06:50:45;6.80;;;5.03;;
10041;SDS011;5061;49.068;12.058;2024-03-23T06:54:06;6.70;;;5.33;;
10041;SDS011;5061;49.068;12.058;2024-03-23T06:57:27;6.53;;;5.37;;
10041;SDS011;5061;49.068;12.058;2024-03-23T07:00:48;8.50;;;5.13;;
10041;SDS011;5061;49.068;12.058;2024-03-23T07:04:08;5.33;;;4.27;;
10041;SDS011;5061;49.068;12.058;2024-03-23T07:07:29;6.30;;;5.13;;
10041;SDS011;5061;49.068;12.058;2024-03-23T07:10:50;5.17;;;4.13;;
10041;SDS011;5061;49.068;12.058;2024-03-23T07:14:10;5.60;;;3.60;;
10041;SDS011;5061;49.068;12.058;2024-03-23T07:17:32;4.93;;;4.10;;
10041;SDS011;5061;49.068;12.058;2024-03-23T07:20:53;4.87;;;3.40;;
10041;SDS011;5061;49.068;12.058;2024-03-23T07:24:17;5.67;;;4.03;;
10041;SDS011;5061;49.068;12.058;2024-03-23T07:27:37;7.23;;;5.17;;
10041;SDS011;5061;49.068;12.058;2024-03-23T07:31:04;8.27;;;5.80;;
10041;SDS011;5061;49.068;12.058;2024-03-23T07:34:26;8.37;;;6.10;;
10041;SDS011;5061;49.068;12.058;2024-03-23T07:37:46;7.73;;;4.80;;
10041;SDS011;5061;49.068;12.058;2024-03-23T07:41:11;14.60;;;5.20;;
10041;SDS011;5061;49.068;12.058;2024-03-23T07:44:37;6.57;;;4.60;;
10041;SDS011;5061;49.068;12.058;2024-03-23T07:47:57;6.40;;;4.13;;
10041;SDS011;5061;49.068;12.058;2024-03-23T07:51:20;13.60;;;4.90;;
10041;SDS011;5061;49.068;12.058;2024-03-23T07:54:42;7.63;;;4.63;;
10041;SDS011;5061;49.068;12.058;2024-03-23T07:58:02;6.83;;;5.13;;
10041;SDS011;5061;49.068;12.058;2024-03-23T08:01:23;7.23;;;4.90;;
10041;SDS011;5061;49.068;12.058;2024-03-23T08:04:43;4.23;;;3.83;;
10041;SDS011;5061;49.068;12.058;2024-03-23T08:08:04;8.50;;;4.63;;
10041;SDS011;5061;49.068;12.058;2024-03-23T08:11:25;8.13;;;3.60;;
10041;SDS011;5061;49.068;12.058;2024-03-23T08:14:50;7.00;;;4.10;;
10041;SDS011;5061;49.068;12.058;2024-03-23T08:18:11;6.83;;;3.90;;
10041;SDS011;5061;49.068;12.058;2024-03-23T08:21:32;4.90;;;4.20;;
10041;SDS011;5061;49.068;12.058;2024-03-23T08:24:52;4.67;;;3.93;;
10041;SDS011;5061;49.068;12.058;2024-03-23T08:28:13;5.83;;;4.20;;
10041;SDS011;5061;49.068;12.058;2024-03-23T08:31:34;6.27;;;4.17;;
10041;SDS011;5061;49.068;12.058;2024-03-23T08:34:54;4.57;;;3.37;;
10041;SDS011;5061;49.068;12.058;2024-03-23T08:38:15;4.67;;;3.43;;
10041;SDS011;5061;49.068;12.058;2024-03-23T08:41:36;4.70;;;3.60;;
10041;SDS011;5061;49.068;12.058;2024-03-23T08:44:56;6.53;;;4.50;;
10041;SDS011;5061;49.068;12.058;2024-03-23T08:48:17;6.90;;;4.03;;
10041;SDS011;5061;49.068;12.058;2024-03-23T08:51:41;6.10;;;4.37;;
10041;SDS011;5061;49.068;12.058;2024-03-23T08:55:07;6.33;;;4.97;;
10041;SDS011;5061;49.068;12.058;2024-03-23T08:58:29;6.10;;;4.77;;
10041;SDS011;5061;49.068;12.058;2024-03-23T09:01:51;5.80;;;3.87;;
10041;SDS011;5061;49.068;12.058;2024-03-23T09:05:12;7.40;;;4.00;;
10041;SDS011;5061;49.068;12.058;2024-03-23T09:08:33;7.33;;;4.67;;
10041;SDS011;5061;49.068;12.058;2024-03-23T09:11:54;6.90;;;4.53;;
10041;SDS011;5061;49.068;12.058;2024-03-23T09:15:15;8.20;;;4.60;;
10041;SDS011;5061;49.068;12.058;2024-03-23T09:18:36;6.17;;;4.50;;
10041;SDS011;5061;49.068;12.058;2024-03-23T09:21:56;7.20;;;4.70;;
10041;SDS011;5061;49.068;12.058;2024-03-23T09:25:17;6.17;;;5.00;;
10041;SDS011;5061;49.068;12.058;2024-03-23T09:28:40;7.60;;;4.27;;
10041;SDS011;5061;49.068;12.058;2024-03-23T09:32:01;5.70;;;4.67;;
10041;SDS011;5061;49.068;12.058;2024-03-23T09:35:21;6.07;;;4.27;;
10041;SDS011;5061;49.068;12.058;2024-03-23T09:38:42;11.00;;;4.40;;
10041;SDS011;5061;49.068;12.058;2024-03-23T09:42:03;9.20;;;4.30;;
10041;SDS011;5061;49.068;12.058;2024-03-23T09:45:28;6.67;;;3.57;;
10041;SDS011;5061;49.068;12.058;2024-03-23T09:48:49;5.80;;;3.83;;
10041;SDS011;5061;49.068;12.058;2024-03-23T09:52:10;6.67;;;3.83;;
10041;SDS011;5061;49.068;12.058;2024-03-23T09:55:31;7.57;;;4.17;;
10041;SDS011;5061;49.068;12.058;2024-03-23T09:58:51;4.60;;;3.53;;
10041;SDS011;5061;49.068;12.058;2024-03-23T10:02:19;4.30;;;3.13;;
10041;SDS011;5061;49.068;12.058;2024-03-23T10:05:41;4.43;;;2.90;;
10041;SDS011;5061;49.068;12.058;2024-03-23T10:09:02;5.07;;;2.30;;
10041;SDS011;5061;49.068;12.058;2024-03-23T10:12:40;2.77;;;2.27;;
10041;SDS011;5061;49.068;12.058;2024-03-23T10:16:08;2.97;;;2.43;;
10041;SDS011;5061;49.068;12.058;2024-03-23T10:19:31;2.60;;;2.20;;
10041;SDS011;5061;49.068;12.058;2024-03-23T10:22:52;2.50;;;1.83;;
10041;SDS011;5061;49.068;12.058;2024-03-23T10:29:39;2.00;;;1.80;;
10041;SDS011;5061;49.068;12.058;2024-03-23T10:33:09;1.50;;;1.40;;
10041;SDS011;5061;49.068;12.058;2024-03-23T10:36:31;1.77;;;1.20;;
10041;SDS011;5061;49.068;12.058;2024-03-23T10:39:52;2.40;;;1.30;;
10041;SDS011;5061;49.068;12.058;2024-03-23T10:43:12;1.33;;;1.23;;
10041;SDS011;5061;49.068;12.058;2024-03-23T10:46:33;1.23;;;1.13;;
10041;SDS011;5061;49.068;12.058;2024-03-23T10:49:55;1.23;;;1.13;;
10041;SDS011;5061;49.068;12.058;2024-03-23T10:53:15;1.30;;;1.20;;
10041;SDS011;5061;49.068;12.058;2024-03-23T10:56:37;1.30;;;1.20;;
10041;SDS011;5061;49.068;12.058;2024-03-23T10:59:59;4.50;;;1.17;;
10041;SDS011;5061;49.068;12.058;2024-03-23T11:03:30;1.30;;;1.17;;
10041;SDS011;5061;49.068;12.058;2024-03-23T11:06:50;1.20;;;1.10;;
10041;SDS011;5061;49.068;12.058;2024-03-23T11:10:24;1.10;;;0.90;;
10041;SDS011;5061;49.068;12.058;2024-03-23T11:13:49;1.10;;;1.00;;
10041;SDS011;5061;49.068;12.058;2024-03-23T11:17:11;3.43;;;1.30;;
10041;SDS011;5061;49.068;12.058;2024-03-23T11:20:32;1.17;;;1.07;;
10041;SDS011;5061;49.068;12.058;2024-03-23T11:23:53;1.20;;;1.10;;
10041;SDS011;5061;49.068;12.058;2024-03-23T11:27:17;1.10;;;1.00;;
10041;SDS011;5061;49.068;12.058;2024-03-23T11:30:37;1.30;;;1.13;;
10041;SDS011;5061;49.068;12.058;2024-03-23T11:34:04;2.10;;;1.07;;
10041;SDS011;5061;49.068;12.058;2024-03-23T11:37:26;2.07;;;1.07;;
10041;SDS011;5061;49.068;12.058;2024-03-23T11:40:47;1.60;;;1.20;;
10041;SDS011;5061;49.068;12.058;2024-03-23T11:44:16;2.83;;;1.00;;
10041;SDS011;5061;49.068;12.058;2024-03-23T11:47:47;6.67;;;1.40;;
10041;SDS011;5061;49.068;12.058;2024-03-23T11:51:35;1.63;;;1.43;;
10041;SDS011;5061;49.068;12.058;2024-03-23T11:55:05;1.93;;;1.40;;
10041;SDS011;5061;49.068;12.058;2024-03-23T11:58:28;1.10;;;1.00;;
10041;SDS011;5061;49.068;12.058;2024-03-23T12:01:55;1.23;;;1.13;;
10041;SDS011;5061;49.068;12.058;2024-03-23T12:05:16;2.00;;;1.27;;
10041;SDS011;5061;49.068;12.058;2024-03-23T12:08:37;14.33;;;1.73;;
10041;SDS011;5061;49.068;12.058;2024-03-23T12:12:04;4.73;;;2.40;;
10041;SDS011;5061;49.068;12.058;2024-03-23T12:15:29;3.47;;;1.30;;
10041;SDS011;5061;49.068;12.058;2024-03-23T12:18:50;3.63;;;2.27;;
10041;SDS011;5061;49.068;12.058;2024-03-23T12:22:15;4.83;;;1.97;;
10041;SDS011;5061;49.068;12.058;2024-03-23T12:25:35;4.17;;;2.20;;
10041;SDS011;5061;49.068;12.058;2024-03-23T12:28:56;3.27;;;1.47;;
10041;SDS011;5061;49.068;12.058;2024-03-23T12:32:17;4.03;;;1.93;;
10041;SDS011;5061;49.068;12.058;2024-03-23T12:35:38;4.03;;;1.80;;
10041;SDS011;5061;49.068;12.058;2024-03-23T12:38:59;2.20;;;1.67;;
10041;SDS011;5061;49.068;12.058;2024-03-23T12:42:20;6.23;;;1.80;;
10041;SDS011;5061;49.068;12.058;2024-03-23T12:45:41;3.10;;;1.80;;
10041;SDS011;5061;49.068;12.058;2024-03-23T12:49:05;2.30;;;1.67;;
10041;SDS011;5061;49.068;12.058;2024-03-23T12:52:26;3.87;;;2.13;;
10041;SDS011;5061;49.068;12.058;2024-03-23T12:55:50;3.10;;;1.87;;
10041;SDS011;5061;49.068;12.058;2024-03-23T12:59:10;2.37;;;1.63;;
10041;SDS011;5061;49.068;12.058;2024-03-23T13:02:31;3.67;;;1.80;;
10041;SDS011;5061;49.068;12.058;2024-03-23T13:05:52;2.83;;;2.27;;
10041;SDS011;5061;49.068;12.058;2024-03-23T13:09:12;4.17;;;2.10;;
10041;SDS011;5061;49.068;12.058;2024-03-23T13:12:33;5.33;;;1.77;;
10041;SDS011;5061;49.068;12.058;2024-03-23T13:15:54;2.10;;;1.70;;
10041;SDS011;5061;49.068;12.058;2024-03-23T13:19:14;1.57;;;1.40;;
10041;SDS011;5061;49.068;12.058;2024-03-23T13:22:35;2.70;;;1.87;;
10041;SDS011;5061;49.068;12.058;2024-03-23T13:25:56;7.30;;;2.77;;
10041;SDS011;5061;49.068;12.058;2024-03-23T13:29:16;2.50;;;1.70;;
10041;SDS011;5061;49.068;12.058;2024-03-23T13:32:37;2.60;;;2.10;;
10041;SDS011;5061;49.068;12.058;2024-03-23T13:35:58;3.13;;;1.97;;
10041;SDS011;5061;49.068;12.058;2024-03-23T13:39:18;5.23;;;2.60;;
10041;SDS011;5061;49.068;12.058;2024-03-23T13:42:41;2.37;;;1.77;;
10041;SDS011;5061;49.068;12.058;2024-03-23T13:46:02;4.70;;;2.00;;
10041;SDS011;5061;49.068;12.058;2024-03-23T13:49:27;3.60;;;2.10;;
10041;SDS011;5061;49.068;12.058;2024-03-23T13:52:48;4.80;;;2.30;;
10041;SDS011;5061;49.068;12.058;2024-03-23T13:56:09;7.07;;;2.70;;
10041;SDS011;5061;49.068;12.058;2024-03-23T13:59:29;4.43;;;2.10;;
10041;SDS011;5061;49.068;12.058;2024-03-23T14:02:50;9.17;;;2.17;;
10041;SDS011;5061;49.068;12.058;2024-03-23T14:06:10;2.60;;;1.80;;
10041;SDS011;5061;49.068;12.058;2024-03-23T14:09:31;5.90;;;2.27;;
10041;SDS011;5061;49.068;12.058;2024-03-23T14:12:53;2.43;;;1.80;;
10041;SDS011;5061;49.068;12.058;2024-03-23T14:16:13;2.17;;;1.63;;
10041;SDS011;5061;49.068;12.058;2024-03-23T14:19:34;6.03;;;1.40;;
10041;SDS011;5061;49.068;12.058;2024-03-23T14:22:54;3.50;;;1.73;;
10041;SDS011;5061;49.068;12.058;2024-03-23T14:26:16;2.53;;;1.80;;
10041;SDS011;5061;49.068;12.058;2024-03-23T14:29:36;3.20;;;1.90;;
10041;SDS011;5061;49.068;12.058;2024-03-23T14:32:57;5.10;;;2.00;;
10041;SDS011;5061;49.068;12.058;2024-03-23T14:36:19;4.00;;;1.80;;
10041;SDS011;5061;49.068;12.058;2024-03-23T14:39:40;7.83;;;2.43;;
10041;SDS011;5061;49.068;12.058;2024-03-23T14:43:01;3.37;;;2.13;;
10041;SDS011;5061;49.068;12.058;2024-03-23T14:46:22;2.43;;;1.90;;
10041;SDS011;5061;49.068;12.058;2024-03-23T14:49:44;8.40;;;2.30;;
10041;SDS011;5061;49.068;12.058;2024-03-23T14:53:08;5.80;;;2.17;;
10041;SDS011;5061;49.068;12.058;2024-03-23T14:56:28;4.37;;;2.57;;
10041;SDS011;5061;49.068;12.058;2024-03-23T14:59:49;6.27;;;2.10;;
10041;SDS011;5061;49.068;12.058;2024-03-23T15:03:10;4.50;;;2.00;;
10041;SDS011;5061;49.068;12.058;2024-03-23T15:06:30;6.00;;;1.77;;
10041;SDS011;5061;49.068;12.058;2024-03-23T15:09:51;7.00;;;2.90;;
10041;SDS011;5061;49.068;12.058;2024-03-23T15:13:13;7.60;;;2.90;;
10041;SDS011;5061;49.068;12.058;2024-03-23T15:16:34;8.70;;;2.23;;
10041;SDS011;5061;49.068;12.058;2024-03-23T15:19:55;2.57;;;2.00;;
10041;SDS011;5061;49.068;12.058;2024-03-23T15:23:16;3.43;;;2.50;;
10041;SDS011;5061;49.068;12.058;2024-03-23T15:26:37;4.23;;;1.70;;
10041;SDS011;5061;49.068;12.058;2024-03-23T15:29:58;4.17;;;2.40;;
10041;SDS011;5061;49.068;12.058;2024-03-23T15:33:18;2.90;;;1.80;;
10041;SDS011;5061;49.068;12.058;2024-03-23T15:36:39;5.67;;;2.70;;
10041;SDS011;5061;49.068;12.058;2024-03-23T15:40:01;4.10;;;2.20;;
10041;SDS011;5061;49.068;12.058;2024-03-23T15:43:22;6.43;;;2.17;;
10041;SDS011;5061;49.068;12.058;2024-03-23T15:46:43;4.03;;;1.97;;
10041;SDS011;5061;49.068;12.058;2024-03-23T15:50:04;3.17;;;2.00;;
10041;SDS011;5061;49.068;12.058;2024-03-23T15:53:28;2.70;;;1.77;;
10041;SDS011;5061;49.068;12.058;2024-03-23T15:56:49;4.47;;;1.90;;
10041;SDS011;5061;49.068;12.058;2024-03-23T16:00:10;5.50;;;3.03;;
10041;SDS011;5061;49.068;12.058;2024-03-23T16:03:31;3.00;;;1.90;;
10041;SDS011;5061;49.068;12.058;2024-03-23T16:06:53;5.17;;;2.10;;
10041;SDS011;5061;49.068;12.058;2024-03-23T16:10:13;3.43;;;1.60;;
10041;SDS011;5061;49.068;12.058;2024-03-23T16:13:35;6.87;;;2.93;;
10041;SDS011;5061;49.068;12.058;2024-03-23T16:16:55;2.10;;;1.70;;
10041;SDS011;5061;49.068;12.058;2024-03-23T16:20:16;3.60;;;2.03;;
10041;SDS011;5061;49.068;12.058;2024-03-23T16:23:37;4.27;;;1.80;;
10041;SDS011;5061;49.068;12.058;2024-03-23T16:26:57;4.30;;;1.77;;
10041;SDS011;5061;49.068;12.058;2024-03-23T16:30:18;2.07;;;1.60;;
10041;SDS011;5061;49.068;12.058;2024-03-23T16:33:40;5.47;;;2.40;;
10041;SDS011;5061;49.068;12.058;2024-03-23T16:37:01;6.77;;;2.43;;
10041;SDS011;5061;49.068;12.058;2024-03-23T16:40:23;5.87;;;2.07;;
10041;SDS011;5061;49.068;12.058;2024-03-23T16:43:44;5.60;;;2.70;;
10041;SDS011;5061;49.068;12.058;2024-03-23T16:47:05;2.97;;;1.73;;
10041;SDS011;5061;49.068;12.058;2024-03-23T16:50:27;7.80;;;2.33;;
10041;SDS011;5061;49.068;12.058;2024-03-23T16:53:48;7.00;;;2.07;;
10041;SDS011;5061;49.068;12.058;2024-03-23T16:57:08;4.13;;;1.60;;
10041;SDS011;5061;49.068;12.058;2024-03-23T17:00:29;9.10;;;2.73;;
10041;SDS011;5061;49.068;12.058;2024-03-23T17:03:50;2.97;;;1.90;;
10041;SDS011;5061;49.068;12.058;2024-03-23T17:07:11;2.40;;;1.50;;
10041;SDS011;5061;49.068;12.058;2024-03-23T17:10:32;4.37;;;1.70;;
10041;SDS011;5061;49.068;12.058;2024-03-23T17:13:53;3.60;;;2.40;;
10041;SDS011;5061;49.068;12.058;2024-03-23T17:17:15;4.30;;;2.17;;
10041;SDS011;5061;49.068;12.058;2024-03-23T17:20:36;4.63;;;1.83;;
10041;SDS011;5061;49.068;12.058;2024-03-23T17:23:57;4.23;;;2.30;;
10041;SDS011;5061;49.068;12.058;2024-03-23T17:27:18;2.83;;;1.80;;
10041;SDS011;5061;49.068;12.058;2024-03-23T17:30:39;3.80;;;1.90;;
10041;SDS011;5061;49.068;12.058;2024-03-23T17:33:59;3.00;;;1.90;;
10041;SDS011;5061;49.068;12.058;2024-03-23T17:37:20;10.53;;;2.13;;
10041;SDS011;5061;49.068;12.058;2024-03-23T17:40:42;3.30;;;2.50;;
10041;SDS011;5061;49.068;12.058;2024-03-23T17:44:03;4.20;;;2.30;;
10041;SDS011;5061;49.068;12.058;2024-03-23T17:47:24;2.90;;;1.97;;
10041;SDS011;5061;49.068;12.058;2024-03-23T17:50:44;5.40;;;1.70;;
10041;SDS011;5061;49.068;12.058;2024-03-23T17:54:05;7.00;;;1.83;;
10041;SDS011;5061;49.068;12.058;2024-03-23T17:57:26;5.27;;;2.00;;
10041;SDS011;5061;49.068;12.058;2024-03-23T18:00:47;2.60;;;1.60;;
10041;SDS011;5061;49.068;12.058;2024-03-23T18:04:07;4.57;;;2.00;;
10041;SDS011;5061;49.068;12.058;2024-03-23T18:07:28;2.83;;;1.20;;
10041;SDS011;5061;49.068;12.058;2024-03-23T18:10:48;5.77;;;2.10;;
10041;SDS011;5061;49.068;12.058;2024-03-23T18:14:09;5.03;;;2.10;;
10041;SDS011;5061;49.068;12.058;2024-03-23T18:17:30;5.27;;;1.40;;
10041;SDS011;5061;49.068;12.058;2024-03-23T18:20:51;2.53;;;1.50;;
10041;SDS011;5061;49.068;12.058;2024-03-23T18:24:12;1.77;;;1.40;;
10041;SDS011;5061;49.068;12.058;2024-03-23T18:27:32;4.30;;;1.50;;
10041;SDS011;5061;49.068;12.058;2024-03-23T18:30:59;5.73;;;1.70;;
10041;SDS011;5061;49.068;12.058;2024-03-23T18:34:20;3.53;;;1.80;;
10041;SDS011;5061;49.068;12.058;2024-03-23T18:37:41;1.83;;;1.30;;
10041;SDS011;5061;49.068;12.058;2024-03-23T18:41:03;1.50;;;1.30;;
10041;SDS011;5061;49.068;12.058;2024-03-23T18:44:24;2.63;;;1.40;;
10041;SDS011;5061;49.068;12.058;2024-03-23T18:47:44;3.43;;;1.77;;
10041;SDS011;5061;49.068;12.058;2024-03-23T18:51:05;3.03;;;1.40;;
10041;SDS011;5061;49.068;12.058;2024-03-23T18:54:26;4.60;;;1.20;;
10041;SDS011;5061;49.068;12.058;2024-03-23T18:57:47;2.40;;;1.10;;
10041;SDS011;5061;49.068;12.058;2024-03-23T19:01:08;2.90;;;1.30;;
10041;SDS011;5061;49.068;12.058;2024-03-23T19:04:28;1.17;;;1.07;;
10041;SDS011;5061;49.068;12.058;2024-03-23T19:07:49;3.30;;;1.60;;
10041;SDS011;5061;49.068;12.058;2024-03-23T19:11:10;4.20;;;1.20;;
10041;SDS011;5061;49.068;12.058;2024-03-23T19:14:30;4.37;;;1.63;;
10041;SDS011;5061;49.068;12.058;2024-03-23T19:17:51;2.97;;;1.10;;
10041;SDS011;5061;49.068;12.058;2024-03-23T19:21:12;3.70;;;1.47;;
10041;SDS011;5061;49.068;12.058;2024-03-23T19:24:32;1.90;;;1.47;;
10041;SDS011;5061;49.068;12.058;2024-03-23T19:27:53;2.47;;;1.37;;
10041;SDS011;5061;49.068;12.058;2024-03-23T19:31:14;1.00;;;1.00;;
10041;SDS011;5061;49.068;12.058;2024-03-23T19:34:36;4.97;;;1.93;;
10041;SDS011;5061;49.068;12.058;2024-03-23T19:37:57;2.00;;;1.10;;
10041;SDS011;5061;49.068;12.058;2024-03-23T19:41:18;1.47;;;1.03;;
10041;SDS011;5061;49.068;12.058;2024-03-23T19:44:38;2.07;;;1.10;;
10041;SDS011;5061;49.068;12.058;2024-03-23T19:48:02;0.83;;;0.80;;
10041;SDS011;5061;49.068;12.058;2024-03-23T19:51:23;1.47;;;0.80;;
10041;SDS011;5061;49.068;12.058;2024-03-23T19:54:44;1.43;;;0.90;;
10041;SDS011;5061;49.068;12.058;2024-03-23T19:58:05;1.10;;;0.93;;
10041;SDS011;5061;49.068;12.058;2024-03-23T20:01:26;3.37;;;1.00;;
10041;SDS011;5061;49.068;12.058;2024-03-23T20:04:46;4.30;;;1.27;;
10041;SDS011;5061;49.068;12.058;2024-03-23T20:08:07;2.40;;;1.10;;
10041;SDS011;5061;49.068;12.058;2024-03-23T20:11:28;1.00;;;0.90;;
10041;SDS011;5061;49.068;12.058;2024-03-23T20:14:49;2.23;;;1.20;;
10041;SDS011;5061;49.068;12.058;2024-03-23T20:18:10;2.20;;;1.10;;
10041;SDS011;5061;49.068;12.058;2024-03-23T20:21:30;2.43;;;1.40;;
10041;SDS011;5061;49.068;12.058;2024-03-23T20:24:51;1.57;;;1.40;;
10041;SDS011;5061;49.068;12.058;2024-03-23T20:28:13;2.40;;;1.10;;
10041;SDS011;5061;49.068;12.058;2024-03-23T20:31:34;1.57;;;1.37;;
10041;SDS011;5061;49.068;12.058;2024-03-23T20:34:56;5.27;;;1.20;;
10041;SDS011;5061;49.068;12.058;2024-03-23T20:38:17;1.90;;;1.53;;
10041;SDS011;5061;49.068;12.058;2024-03-23T20:41:38;1.93;;;1.10;;
10041;SDS011;5061;49.068;12.058;2024-03-23T20:44:59;1.20;;;1.07;;
10041;SDS011;5061;49.068;12.058;2024-03-23T20:48:19;1.50;;;1.30;;
10041;SDS011;5061;49.068;12.058;2024-03-23T20:51:40;1.10;;;1.00;;
10041;SDS011;5061;49.068;12.058;2024-03-23T20:55:01;1.73;;;1.60;;
10041;SDS011;5061;49.068;12.058;2024-03-23T20:58:21;1.67;;;1.10;;
10041;SDS011;5061;49.068;12.058;2024-03-23T21:01:43;1.13;;;1.03;;
10041;SDS011;5061;49.068;12.058;2024-03-23T21:05:04;0.80;;;0.70;;